createdAt,value
2018-12-02T00:01:39.306Z,96033.46
2018-12-02T00:04:06.604Z,96016.92
2018-12-02T00:06:33.882Z,96018.22
2018-12-02T00:09:01.103Z,96015.64
2018-12-02T00:11:28.362Z,96014.52
2018-12-02T00:13:55.586Z,96008.69
2018-12-02T00:16:22.808Z,96002.05
2018-12-02T00:18:50.067Z,96002.42
2018-12-02T00:21:17.281Z,96009.05
2018-12-02T00:23:44.556Z,95998.98
2018-12-02T00:26:18.517Z,95994.66
2018-12-02T00:28:45.785Z,95993.80
2018-12-02T00:31:13.108Z,95994.09
2018-12-02T00:33:40.344Z,95987.81
2018-12-02T00:36:07.564Z,95992.72
2018-12-02T00:38:34.874Z,95990.57
2018-12-02T00:41:02.093Z,95980.78
2018-12-02T00:43:29.295Z,95980.95
2018-12-02T00:45:56.524Z,95972.53
2018-12-02T00:48:23.786Z,95970.42
2018-12-02T00:50:51.085Z,95961.44
2018-12-02T00:53:18.332Z,95956.83
2018-12-02T00:55:45.580Z,95953.95
2018-12-02T00:58:12.843Z,95952.47
2018-12-02T01:00:42.233Z,95955.62
2018-12-02T01:03:09.785Z,95948.22
2018-12-02T01:05:37.067Z,95936.39
2018-12-02T01:08:04.991Z,95936.20
2018-12-02T01:10:32.267Z,95940.56
2018-12-02T01:12:59.624Z,95937.85
2018-12-02T01:15:27.927Z,95937.84
2018-12-02T01:18:03.556Z,95935.34
2018-12-02T01:20:31.149Z,95919.55
2018-12-02T01:22:58.395Z,95916.55
2018-12-02T01:25:25.663Z,95913.95
2018-12-02T01:27:52.873Z,95911.47
2018-12-02T01:30:20.918Z,95912.41
2018-12-02T01:32:48.357Z,95907.97
2018-12-02T01:35:16.448Z,95911.77
2018-12-02T01:37:43.873Z,95907.12
2018-12-02T01:40:12.100Z,95903.73
2018-12-02T01:42:39.493Z,95904.47
2018-12-02T01:45:13.831Z,95898.08
2018-12-02T01:47:41.160Z,95899.94
2018-12-02T01:50:09.943Z,95838.03
2018-12-02T01:52:37.202Z,95889.02
2018-12-02T01:55:05.199Z,95892.37
2018-12-02T01:57:32.407Z,95884.40
2018-12-02T01:59:59.873Z,95891.96
2018-12-02T02:02:32.161Z,95886.17
2018-12-02T02:05:05.720Z,95882.53
2018-12-02T02:07:33.008Z,95877.55
2018-12-02T02:10:00.279Z,95870.59
2018-12-02T02:12:27.499Z,95878.92
2018-12-02T02:14:54.862Z,95863.02
2018-12-02T02:17:22.322Z,95861.92
2018-12-02T02:19:49.563Z,95859.69
2018-12-02T02:22:16.854Z,95853.09
2018-12-02T02:24:44.152Z,95847.83
2018-12-02T02:27:11.392Z,95832.77
2018-12-02T02:29:38.668Z,95795.81
2018-12-02T02:32:05.958Z,95838.57
2018-12-02T02:34:33.786Z,95831.52
2018-12-02T02:37:01.129Z,95826.22
2018-12-02T02:39:28.368Z,95829.63
2018-12-02T02:41:55.544Z,95829.63
2018-12-02T02:44:32.939Z,95817.97
2018-12-02T02:47:00.279Z,95819.63
2018-12-02T02:49:27.502Z,95807.30
2018-12-02T02:51:54.708Z,95780.19
2018-12-02T02:54:21.900Z,95810.29
2018-12-02T02:56:58.897Z,95807.52
2018-12-02T02:59:27.317Z,95800.67
2018-12-02T03:01:55.319Z,95801.31
2018-12-02T03:04:27.744Z,95793.80
2018-12-02T03:06:55.025Z,95779.37
2018-12-02T03:09:22.261Z,95787.23
2018-12-02T03:11:49.549Z,95782.14
2018-12-02T03:14:16.785Z,95771.69
2018-12-02T03:16:44.020Z,95724.73
2018-12-02T03:19:11.225Z,95773.98
2018-12-02T03:21:38.485Z,95761.02
2018-12-02T03:24:05.742Z,95757.71
2018-12-02T03:26:32.960Z,95756.98
2018-12-02T03:29:00.159Z,95749.94
2018-12-02T03:31:27.362Z,95737.20
2018-12-02T03:33:54.584Z,95747.29
2018-12-02T03:36:21.877Z,95747.95
2018-12-02T03:38:49.167Z,95744.55
2018-12-02T03:41:16.411Z,95740.30
2018-12-02T03:43:43.686Z,95729.31
2018-12-02T03:46:11.006Z,95726.27
2018-12-02T03:48:38.243Z,95724.34
2018-12-02T03:51:05.435Z,95717.52
2018-12-02T03:53:32.682Z,95714.53
2018-12-02T03:55:59.876Z,95713.23
2018-12-02T03:58:27.128Z,95710.73
2018-12-02T04:00:54.389Z,95704.29
2018-12-02T04:03:21.634Z,95703.27
2018-12-02T04:05:48.925Z,95704.38
2018-12-02T04:08:16.215Z,95696.25
2018-12-02T04:10:43.463Z,95701.34
2018-12-02T04:13:10.724Z,95700.86
2018-12-02T04:15:37.940Z,95697.69
2018-12-02T04:18:05.132Z,95699.16
2018-12-02T04:20:32.361Z,95692.95
2018-12-02T04:22:59.589Z,95691.72
2018-12-02T04:25:26.852Z,95690.16
2018-12-02T04:27:54.027Z,95683.94
2018-12-02T04:30:21.935Z,95679.48
2018-12-02T04:32:50.038Z,95685.51
2018-12-02T04:35:23.277Z,95688.72
2018-12-02T04:37:50.574Z,95680.59
2018-12-02T04:40:17.820Z,95672.91
2018-12-02T04:42:45.317Z,95673.90
2018-12-02T04:45:14.361Z,95674.12
2018-12-02T04:47:41.688Z,95668.27
2018-12-02T04:50:24.354Z,95674.22
2018-12-02T04:52:58.207Z,95670.41
2018-12-02T04:55:25.460Z,95670.09
2018-12-02T04:57:52.635Z,95669.16
2018-12-02T05:00:20.376Z,95681.35
2018-12-02T05:02:59.921Z,95672.98
2018-12-02T05:05:27.483Z,95663.27
2018-12-02T05:07:54.762Z,95662.11
2018-12-02T05:10:22.107Z,95658.91
2018-12-02T05:12:50.179Z,95660.92
2018-12-02T05:15:18.470Z,95660.56
2018-12-02T05:17:45.691Z,95653.05
2018-12-02T05:20:17.438Z,95647.73
2018-12-02T05:22:44.695Z,95646.82
2018-12-02T05:25:17.607Z,95592.94
2018-12-02T05:27:39.912Z,95644.78
2018-12-02T05:30:09.713Z,95629.57
2018-12-02T05:32:37.018Z,95627.63
2018-12-02T05:35:04.744Z,95636.70
2018-12-02T05:37:31.955Z,95640.59
2018-12-02T05:39:59.282Z,95636.08
2018-12-02T05:42:31.740Z,95638.55
2018-12-02T05:44:59.170Z,95631.94
2018-12-02T05:47:26.455Z,95634.58
2018-12-02T05:49:53.689Z,95633.06
2018-12-02T05:52:20.973Z,95633.92
2018-12-02T05:54:48.226Z,95632.63
2018-12-02T05:57:15.505Z,95625.17
2018-12-02T05:59:42.746Z,95621.51
2018-12-02T06:02:09.965Z,95616.68
2018-12-02T06:04:37.222Z,95619.73
2018-12-02T06:07:04.962Z,95611.95
2018-12-02T06:09:32.436Z,95603.87
2018-12-02T06:11:59.672Z,95596.23
2018-12-02T06:14:26.905Z,95592.05
2018-12-02T06:16:54.072Z,95589.45
2018-12-02T06:19:29.988Z,95584.16
2018-12-02T06:21:57.438Z,95581.56
2018-12-02T06:24:24.703Z,95587.73
2018-12-02T06:26:52.031Z,95581.04
2018-12-02T06:29:19.330Z,95578.52
2018-12-02T06:31:46.560Z,95585.63
2018-12-02T06:34:13.769Z,95583.22
2018-12-02T06:36:41.117Z,95580.22
2018-12-02T06:39:09.715Z,95576.69
2018-12-02T06:41:38.092Z,95568.39
2018-12-02T06:44:05.357Z,95563.02
2018-12-02T06:46:32.783Z,95563.47
2018-12-02T06:49:00.042Z,95560.16
2018-12-02T06:51:27.291Z,95561.00
2018-12-02T06:53:54.558Z,95543.38
2018-12-02T06:56:34.892Z,95557.16
2018-12-02T06:59:16.270Z,95562.28
2018-12-02T07:01:58.739Z,95570.19
2018-12-02T07:04:28.704Z,95568.80
2018-12-02T07:06:56.435Z,95564.48
2018-12-02T07:09:23.712Z,95565.81
2018-12-02T07:11:50.948Z,95575.70
2018-12-02T07:14:18.177Z,95562.19
2018-12-02T07:16:45.452Z,95556.09
2018-12-02T07:19:17.677Z,95557.81
2018-12-02T07:21:51.624Z,95560.70
2018-12-02T07:24:24.401Z,95549.48
2018-12-02T07:27:02.665Z,95554.64
2018-12-02T07:29:30.819Z,95557.61
2018-12-02T07:31:58.078Z,95560.14
2018-12-02T07:34:25.318Z,95558.64
2018-12-02T07:36:53.260Z,95562.30
2018-12-02T07:41:48.275Z,95554.09
2018-12-02T07:44:15.616Z,95548.77
2018-12-02T07:46:54.679Z,95534.56
2018-12-02T07:49:25.504Z,95529.84
2018-12-02T07:51:52.742Z,95524.81
2018-12-02T07:54:19.952Z,95530.96
2018-12-02T07:56:47.177Z,95532.36
2018-12-02T07:59:14.436Z,95537.46
2018-12-02T08:01:41.747Z,95529.13
2018-12-02T08:04:09.036Z,95527.59
2018-12-02T08:06:36.282Z,95536.31
2018-12-02T08:09:04.350Z,95529.74
2018-12-02T08:11:31.602Z,95518.31
2018-12-02T08:13:58.832Z,95525.02
2018-12-02T08:16:36.174Z,95517.73
2018-12-02T08:19:04.101Z,95514.93
2018-12-02T08:21:31.380Z,95515.05
2018-12-02T08:23:58.601Z,95515.19
2018-12-02T08:26:25.915Z,95524.14
2018-12-02T08:28:53.159Z,95525.09
2018-12-02T08:31:20.402Z,95524.73
2018-12-02T08:33:47.785Z,95534.66
2018-12-02T08:36:15.253Z,95531.81
2018-12-02T08:38:42.643Z,95535.31
2018-12-02T08:41:09.850Z,95534.15
2018-12-02T08:43:37.162Z,95528.47
2018-12-02T08:46:04.502Z,95534.84
2018-12-02T08:48:31.772Z,95534.49
2018-12-02T08:50:59.004Z,95532.35
2018-12-02T08:53:26.223Z,95539.18
2018-12-02T08:55:53.488Z,95545.91
2018-12-02T08:58:20.734Z,95534.78
2018-12-02T09:00:48.011Z,95540.48
2018-12-02T09:03:15.266Z,95535.53
2018-12-02T09:05:42.534Z,95530.45
2018-12-02T09:08:10.428Z,95532.45
2018-12-02T09:10:37.710Z,95523.37
2018-12-02T09:13:08.333Z,95510.39
2018-12-02T09:15:35.631Z,95508.53
2018-12-02T09:18:02.950Z,95505.20
2018-12-02T09:20:34.340Z,95512.17
2018-12-02T09:23:01.904Z,95513.83
2018-12-02T09:25:29.150Z,95518.18
2018-12-02T09:27:56.364Z,95521.02
2018-12-02T09:30:24.911Z,95519.28
2018-12-02T09:32:52.101Z,95515.84
2018-12-02T09:35:19.356Z,95524.71
2018-12-02T09:37:46.620Z,95519.73
2018-12-02T09:40:14.795Z,95517.04
2018-12-02T09:42:50.011Z,95532.77
2018-12-02T09:45:22.398Z,95522.98
2018-12-02T09:47:49.650Z,95528.28
2018-12-02T09:50:17.119Z,95498.62
2018-12-02T09:52:44.375Z,95527.83
2018-12-02T09:55:21.841Z,95523.58
2018-12-02T09:57:49.378Z,95514.85
2018-12-02T10:00:20.855Z,95519.95
2018-12-02T10:02:51.072Z,95499.27
2018-12-02T10:05:18.357Z,95498.13
2018-12-02T10:07:49.055Z,95500.37
2018-12-02T10:10:22.871Z,95492.36
2018-12-02T10:12:49.823Z,95508.30
2018-12-02T10:15:17.011Z,95507.95
2018-12-02T10:17:44.303Z,95506.89
2018-12-02T10:20:14.283Z,95517.55
2018-12-02T10:22:41.696Z,95522.98
2018-12-02T10:25:10.991Z,95513.66
2018-12-02T10:27:38.298Z,95518.84
2018-12-02T10:30:12.332Z,95514.09
2018-12-02T10:32:39.532Z,95513.64
2018-12-02T10:35:06.768Z,95481.63
2018-12-02T10:37:34.056Z,95516.16
2018-12-02T10:40:08.489Z,95516.03
2018-12-02T10:42:35.750Z,95511.08
2018-12-02T10:45:03.247Z,95519.12
2018-12-02T10:47:30.443Z,95521.80
2018-12-02T10:49:57.729Z,95521.57
2018-12-02T10:52:25.026Z,95520.27
2018-12-02T10:54:52.285Z,95528.03
2018-12-02T10:57:19.523Z,95522.70
2018-12-02T10:59:46.803Z,95519.36
2018-12-02T11:02:16.014Z,95519.57
2018-12-02T11:04:43.347Z,95530.31
2018-12-02T11:07:10.673Z,95524.01
2018-12-02T11:09:37.889Z,95525.39
2018-12-02T11:12:06.876Z,95531.70
2018-12-02T11:14:34.184Z,95517.15
2018-12-02T11:17:01.395Z,95512.52
2018-12-02T11:19:28.677Z,95503.41
2018-12-02T11:21:55.921Z,95504.72
2018-12-02T11:24:23.217Z,95499.60
2018-12-02T11:26:50.525Z,95497.73
2018-12-02T11:29:17.870Z,95502.52
2018-12-02T11:31:45.082Z,95499.32
2018-12-02T11:34:12.376Z,95492.08
2018-12-02T11:36:39.637Z,95492.17
2018-12-02T11:39:08.598Z,95494.08
2018-12-02T11:41:36.848Z,95497.89
2018-12-02T11:44:04.452Z,95504.02
2018-12-02T11:46:31.706Z,95501.84
2018-12-02T11:48:58.927Z,95511.28
2018-12-02T11:51:26.217Z,95506.92
2018-12-02T11:53:53.591Z,95509.48
2018-12-02T11:56:20.862Z,95498.64
2018-12-02T11:58:48.080Z,95513.25
2018-12-02T12:01:15.408Z,95498.67
2018-12-02T12:03:42.624Z,95509.39
2018-12-02T12:06:09.932Z,95513.66
2018-12-02T12:08:37.144Z,95514.61
2018-12-02T12:11:04.471Z,95501.84
2018-12-02T12:13:31.738Z,95508.88
2018-12-02T12:15:59.048Z,95507.34
2018-12-02T12:18:26.265Z,95502.70
2018-12-02T12:20:53.767Z,95505.14
2018-12-02T12:23:21.477Z,95506.10
2018-12-02T12:25:48.731Z,95501.50
2018-12-02T12:28:16.025Z,95498.55
2018-12-02T12:30:43.334Z,95496.28
2018-12-02T12:33:10.750Z,95507.13
2018-12-02T12:35:54.044Z,95498.38
2018-12-02T12:38:22.368Z,95501.16
2018-12-02T12:40:52.871Z,95505.08
2018-12-02T12:43:26.248Z,95497.98
2018-12-02T12:45:53.647Z,95503.92
2018-12-02T12:48:20.918Z,95511.35
2018-12-02T12:50:48.611Z,95499.86
2018-12-02T12:53:16.944Z,95500.41
2018-12-02T12:55:44.161Z,95502.22
2018-12-02T12:58:13.781Z,95499.69
2018-12-02T13:00:41.347Z,95493.50
2018-12-02T13:03:08.634Z,95492.48
2018-12-02T13:05:42.725Z,95507.80
2018-12-02T13:08:11.424Z,95506.06
2018-12-02T13:10:38.661Z,95500.91
2018-12-02T13:13:06.244Z,95498.83
2018-12-02T13:15:33.677Z,95497.77
2018-12-02T13:18:01.878Z,95497.73
2018-12-02T13:20:38.451Z,95513.34
2018-12-02T13:23:06.584Z,95510.45
2018-12-02T13:25:33.897Z,95512.27
2018-12-02T13:28:01.183Z,95497.48
2018-12-02T13:30:28.426Z,95510.70
2018-12-02T13:32:55.850Z,95505.06
2018-12-02T13:35:23.509Z,95511.48
2018-12-02T13:37:50.765Z,95501.78
2018-12-02T13:40:20.850Z,95521.55
2018-12-02T13:42:58.959Z,95526.11
2018-12-02T13:45:27.335Z,95537.08
2018-12-02T13:47:54.592Z,95532.91
2018-12-02T13:50:22.007Z,95540.97
2018-12-02T13:52:50.528Z,95544.36
2018-12-02T13:55:18.999Z,95553.62
2018-12-02T13:57:46.712Z,95553.16
2018-12-02T14:00:17.939Z,95553.50
2018-12-02T14:02:46.370Z,95564.39
2018-12-02T14:05:13.639Z,95559.01
2018-12-02T14:07:40.868Z,95562.45
2018-12-02T14:10:11.378Z,95564.97
2018-12-02T14:12:39.922Z,95572.33
2018-12-02T14:15:21.753Z,95571.02
2018-12-02T14:17:50.617Z,95569.62
2018-12-02T14:20:17.971Z,95579.09
2018-12-02T14:22:50.466Z,95576.88
2018-12-02T14:25:17.856Z,95574.53
2018-12-02T14:27:46.623Z,95573.97
2018-12-02T14:30:16.359Z,95575.39
2018-12-02T14:32:43.636Z,95584.91
2018-12-02T14:35:10.910Z,95587.06
2018-12-02T14:37:38.360Z,95593.63
2018-12-02T14:40:08.703Z,95589.41
2018-12-02T14:42:35.915Z,95593.94
2018-12-02T14:45:07.489Z,95603.33
2018-12-02T14:47:34.811Z,95598.03
2018-12-02T14:50:02.115Z,95602.06
2018-12-02T14:52:29.368Z,95600.91
2018-12-02T14:54:56.709Z,95611.80
2018-12-02T14:57:23.969Z,95614.17
2018-12-02T14:59:51.154Z,95618.11
2018-12-02T15:02:18.406Z,95623.31
2018-12-02T15:04:45.686Z,95613.77
2018-12-02T15:07:12.919Z,95611.88
2018-12-02T15:09:40.163Z,95605.88
2018-12-02T15:12:07.414Z,95614.05
2018-12-02T15:14:34.609Z,95617.45
2018-12-02T15:17:01.884Z,95610.02
2018-12-02T15:19:29.121Z,95613.92
2018-12-02T15:21:56.380Z,95618.52
2018-12-02T15:24:23.617Z,95626.48
2018-12-02T15:26:50.858Z,95622.08
2018-12-02T15:29:18.043Z,95625.42
2018-12-02T15:31:45.223Z,95610.15
2018-12-02T15:34:12.488Z,95623.88
2018-12-02T15:36:39.716Z,95631.69
2018-12-02T15:39:09.392Z,95630.77
2018-12-02T15:41:36.726Z,95631.11
2018-12-02T15:44:04.394Z,95636.55
2018-12-02T15:46:31.622Z,95633.59
2018-12-02T15:48:58.855Z,95641.42
2018-12-02T15:51:26.093Z,95637.86
2018-12-02T15:53:53.430Z,95611.39
2018-12-02T15:56:20.705Z,95642.27
2018-12-02T15:58:48.272Z,95638.36
2018-12-02T16:01:15.548Z,95643.44
2018-12-02T16:03:42.791Z,95642.01
2018-12-02T16:06:10.050Z,95642.01
2018-12-02T16:08:37.262Z,95633.13
2018-12-02T16:11:04.798Z,95638.10
2018-12-02T16:13:32.022Z,95641.89
2018-12-02T16:15:59.284Z,95638.69
2018-12-02T16:18:26.520Z,95642.83
2018-12-02T16:20:54.551Z,95639.98
2018-12-02T16:23:22.957Z,95637.03
2018-12-02T16:25:50.246Z,95642.83
2018-12-02T16:28:28.287Z,95636.31
2018-12-02T16:31:08.818Z,95644.37
2018-12-02T16:33:39.513Z,95640.22
2018-12-02T16:36:11.300Z,95642.34
2018-12-02T16:38:38.516Z,95638.78
2018-12-02T16:41:05.798Z,95647.78
2018-12-02T16:43:33.053Z,95645.78
2018-12-02T16:46:00.444Z,95646.02
2018-12-02T16:48:27.740Z,95649.78
2018-12-02T16:50:54.984Z,95652.18
2018-12-02T16:53:23.820Z,95657.02
2018-12-02T16:56:08.654Z,95648.86
2018-12-02T16:58:48.040Z,95650.73
2018-12-02T17:01:16.631Z,95658.55
2018-12-02T17:03:43.847Z,95647.30
2018-12-02T17:06:11.094Z,95645.73
2018-12-02T17:08:38.644Z,95655.23
2018-12-02T17:11:05.949Z,95655.81
2018-12-02T17:13:33.261Z,95664.58
2018-12-02T17:16:00.547Z,95655.72
2018-12-02T17:18:37.066Z,95659.97
2018-12-02T17:21:05.449Z,95664.58
2018-12-02T17:23:32.722Z,95662.09
2018-12-02T17:25:59.898Z,95662.58
2018-12-02T17:28:29.086Z,95661.88
2018-12-02T17:30:58.930Z,95667.44
2018-12-02T17:33:26.170Z,95657.02
2018-12-02T17:35:53.535Z,95658.44
2018-12-02T17:38:22.489Z,95645.06
2018-12-02T17:40:49.789Z,95649.06
2018-12-02T17:43:17.196Z,95650.02
2018-12-02T17:45:44.427Z,95650.02
2018-12-02T17:48:11.661Z,95657.46
2018-12-02T17:50:39.043Z,95660.45
2018-12-02T17:53:08.215Z,95657.23
2018-12-02T17:55:35.424Z,95645.60
2018-12-02T17:58:02.631Z,95654.38
2018-12-02T18:00:29.882Z,95650.12
2018-12-02T18:03:02.694Z,95657.82
2018-12-02T18:05:34.867Z,95663.14
2018-12-02T18:08:02.135Z,95667.79
2018-12-02T18:10:31.270Z,95662.58
2018-12-02T18:13:09.575Z,95672.02
2018-12-02T18:15:37.074Z,95664.81
2018-12-02T18:18:04.546Z,95664.47
2018-12-02T18:20:41.816Z,95662.67
2018-12-02T18:23:09.533Z,95669.31
2018-12-02T18:25:36.853Z,95656.90
2018-12-02T18:28:04.161Z,95665.19
2018-12-02T18:30:31.446Z,95662.38
2018-12-02T18:32:59.848Z,95670.54
2018-12-02T18:35:50.220Z,95679.66
2018-12-02T18:38:18.763Z,95669.00
2018-12-02T18:40:49.291Z,95663.67
2018-12-02T18:43:16.561Z,95666.03
2018-12-02T18:45:43.767Z,95665.34
2018-12-02T18:48:11.070Z,95669.83
2018-12-02T18:50:40.134Z,95669.72
2018-12-02T18:53:07.408Z,95662.00
2018-12-02T18:55:34.671Z,95656.68
2018-12-02T18:58:01.894Z,95648.41
2018-12-02T19:00:37.917Z,95649.71
2018-12-02T19:03:12.274Z,95653.47
2018-12-02T19:05:39.478Z,95655.03
2018-12-02T19:08:06.489Z,95646.84
2018-12-02T19:10:33.769Z,95648.03
2018-12-02T19:13:01.248Z,95648.03
2018-12-02T19:15:28.983Z,95638.78
2018-12-02T19:17:56.249Z,95645.44
2018-12-02T19:20:26.946Z,95637.12
2018-12-02T19:22:55.570Z,95627.20
2018-12-02T19:25:24.378Z,95630.39
2018-12-02T19:27:51.546Z,95626.34
2018-12-02T19:30:18.819Z,95631.32
2018-12-02T19:32:46.371Z,95632.72
2018-12-02T19:35:18.415Z,95637.00
2018-12-02T19:37:47.102Z,95642.33
2018-12-02T19:40:15.320Z,95650.25
2018-12-02T19:42:42.565Z,95644.09
2018-12-02T19:45:15.293Z,95652.48
2018-12-02T19:47:42.550Z,95647.52
2018-12-02T19:50:15.242Z,95649.77
2018-12-02T19:52:42.488Z,95650.72
2018-12-02T19:55:16.799Z,95650.00
2018-12-02T19:57:46.670Z,95646.33
2018-12-02T20:00:22.847Z,95656.75
2018-12-02T20:02:50.240Z,95656.26
2018-12-02T20:05:17.562Z,95652.84
2018-12-02T20:07:46.409Z,95662.92
2018-12-02T20:10:15.168Z,95663.75
2018-12-02T20:12:42.573Z,95675.12
2018-12-02T20:15:11.230Z,95677.49
2018-12-02T20:17:38.440Z,95678.55
2018-12-02T20:20:15.775Z,95675.97
2018-12-02T20:22:43.199Z,95673.48
2018-12-02T20:25:10.707Z,95669.31
2018-12-02T20:27:38.004Z,95668.48
2018-12-02T20:30:11.184Z,95672.74
2018-12-02T20:32:38.467Z,95666.70
2018-12-02T20:35:07.613Z,95666.96
2018-12-02T20:37:34.845Z,95667.77
2018-12-02T20:40:02.092Z,95657.13
2018-12-02T20:42:29.426Z,95658.42
2018-12-02T20:44:56.698Z,95653.33
2018-12-02T20:47:23.988Z,95651.42
2018-12-02T20:49:52.339Z,95642.30
2018-12-02T20:52:19.573Z,95642.80
2018-12-02T20:54:46.864Z,95640.39
2018-12-02T20:57:14.126Z,95633.30
2018-12-02T20:59:41.382Z,95633.67
2018-12-02T21:02:08.837Z,95627.73
2018-12-02T21:04:41.833Z,95628.23
2018-12-02T21:07:09.424Z,95611.99
2018-12-02T21:09:36.716Z,95612.69
2018-12-02T21:12:03.909Z,95610.23
2018-12-02T21:14:31.189Z,95612.69
2018-12-02T21:16:58.464Z,95612.11
2018-12-02T21:19:25.808Z,95606.75
2018-12-02T21:21:52.981Z,95626.79
2018-12-02T21:24:20.223Z,95625.23
2018-12-02T21:26:47.427Z,95626.06
2018-12-02T21:29:14.679Z,95619.55
2018-12-02T21:31:41.938Z,95622.94
2018-12-02T21:34:09.206Z,95617.87
2018-12-02T21:36:36.471Z,95615.97
2018-12-02T21:39:07.346Z,95613.24
2018-12-02T21:41:34.606Z,95611.02
2018-12-02T21:44:01.955Z,95605.20
2018-12-02T21:46:29.250Z,95608.75
2018-12-02T21:48:56.562Z,95609.56
2018-12-02T21:51:23.808Z,95609.56
2018-12-02T21:53:51.080Z,95611.83
2018-12-02T21:56:18.376Z,95611.36
2018-12-02T21:58:45.664Z,95619.88
2018-12-02T22:01:13.084Z,95629.34
2018-12-02T22:03:40.371Z,95617.73
2018-12-02T22:06:07.635Z,95610.87
2018-12-02T22:08:34.907Z,95620.34
2018-12-02T22:11:02.132Z,95614.40
2018-12-02T22:13:29.371Z,95615.36
2018-12-02T22:15:56.717Z,95609.30
2018-12-02T22:18:24.034Z,95616.66
2018-12-02T22:20:51.252Z,95617.47
2018-12-02T22:23:18.436Z,95576.68
2018-12-02T22:25:45.701Z,95623.84
2018-12-02T22:28:12.968Z,95627.52
2018-12-02T22:30:40.263Z,95624.64
2018-12-02T22:33:07.532Z,95626.79
2018-12-02T22:35:34.999Z,95621.00
2018-12-02T22:38:02.250Z,95634.61
2018-12-02T22:40:29.552Z,95626.18
2018-12-02T22:42:56.820Z,95637.30
2018-12-02T22:45:27.755Z,95630.05
2018-12-02T22:47:54.996Z,95626.14
2018-12-02T22:50:23.425Z,95622.73
2018-12-02T22:52:52.440Z,95616.09
2018-12-02T22:55:19.762Z,95624.27
2018-12-02T22:57:47.030Z,95613.03
2018-12-02T23:00:33.560Z,95612.45
2018-12-02T23:03:02.182Z,95611.53
2018-12-02T23:05:29.516Z,95615.06
2018-12-02T23:07:56.842Z,95623.38
2018-12-02T23:10:24.183Z,95618.05
2018-12-02T23:12:51.450Z,95624.22
2018-12-02T23:15:18.902Z,95628.97
2018-12-02T23:17:46.215Z,95614.72
2018-12-02T23:20:13.526Z,95616.31
2018-12-02T23:22:40.787Z,95602.67
2018-12-02T23:25:09.383Z,95599.95
2018-12-02T23:27:36.630Z,95595.44
2018-12-02T23:30:11.019Z,95612.87
2018-12-02T23:32:42.310Z,95619.03
2018-12-02T23:35:15.662Z,95613.56
2018-12-02T23:37:42.894Z,95610.34
2018-12-02T23:40:13.120Z,95613.33
2018-12-02T23:42:40.356Z,95603.05
2018-12-02T23:45:09.877Z,95606.73
2018-12-02T23:47:37.194Z,95597.88
2018-12-02T23:50:06.707Z,95607.36
2018-12-02T23:52:33.954Z,95607.50
2018-12-02T23:55:01.230Z,95601.11
2018-12-02T23:57:28.511Z,95598.50
2018-12-02T23:59:55.769Z,95601.36
